createdAt,value
2023-02-05T00:00:26.233Z,2.80
2023-02-05T00:02:56.891Z,2.70
2023-02-05T00:05:30.683Z,2.80
2023-02-05T00:08:02.273Z,2.33
2023-02-05T00:10:32.761Z,3.10
2023-02-05T00:13:03.398Z,3.30
2023-02-05T00:15:35.616Z,2.60
2023-02-05T00:18:07.551Z,2.87
2023-02-05T00:20:40.289Z,2.73
2023-02-05T00:23:10.784Z,2.33
2023-02-05T00:25:41.338Z,2.50
2023-02-05T00:28:13.166Z,2.27
2023-02-05T00:30:44.016Z,2.13
2023-02-05T00:33:14.571Z,2.30
2023-02-05T00:35:46.040Z,2.43
2023-02-05T00:38:19.830Z,3.20
2023-02-05T00:40:50.455Z,2.33
2023-02-05T00:43:21.423Z,2.70
2023-02-05T00:45:51.953Z,3.40
2023-02-05T00:48:24.405Z,17.07
2023-02-05T00:50:55.615Z,4.10
2023-02-05T00:53:29.016Z,3.53
2023-02-05T00:55:59.506Z,3.43
2023-02-05T00:58:31.817Z,2.87
2023-02-05T01:01:03.954Z,2.50
2023-02-05T01:03:34.441Z,4.80
2023-02-05T01:06:06.682Z,3.70
2023-02-05T01:08:37.205Z,2.70
2023-02-05T01:11:10.937Z,3.40
2023-02-05T01:13:42.069Z,3.13
2023-02-05T01:16:13.621Z,3.43
2023-02-05T01:18:44.007Z,2.67
2023-02-05T01:21:16.241Z,2.80
2023-02-05T01:23:49.144Z,2.73
2023-02-05T01:26:19.859Z,3.53
2023-02-05T01:28:51.359Z,2.80
2023-02-05T01:31:22.485Z,2.67
2023-02-05T01:33:54.345Z,2.70
2023-02-05T01:36:24.995Z,3.40
2023-02-05T01:38:56.464Z,3.90
2023-02-05T01:41:29.953Z,3.40
2023-02-05T01:44:15.324Z,3.40
2023-02-05T01:46:47.526Z,3.97
2023-02-05T01:49:32.404Z,4.47
2023-02-05T01:52:06.782Z,3.73
2023-02-05T01:54:40.286Z,3.80
2023-02-05T01:57:20.073Z,3.70
2023-02-05T01:59:54.839Z,4.03
2023-02-05T02:02:27.442Z,3.90
2023-02-05T02:05:00.976Z,4.20
2023-02-05T02:07:31.868Z,4.63
2023-02-05T02:10:02.546Z,4.70
2023-02-05T02:12:36.770Z,5.07
2023-02-05T02:15:10.554Z,4.97
2023-02-05T02:17:44.502Z,4.20
2023-02-05T02:20:20.839Z,4.60
2023-02-05T02:23:05.080Z,4.57
2023-02-05T02:25:41.245Z,4.97
2023-02-05T02:28:23.628Z,4.90
2023-02-05T02:31:05.994Z,4.90
2023-02-05T02:33:48.722Z,4.43
2023-02-05T02:36:57.003Z,5.17
2023-02-05T02:39:35.983Z,4.33
2023-02-05T02:42:18.564Z,5.17
2023-02-05T02:44:53.614Z,4.83
2023-02-05T02:47:27.077Z,5.67
2023-02-05T02:50:03.224Z,4.50
2023-02-05T02:52:37.212Z,4.47
2023-02-05T02:55:10.655Z,4.73
2023-02-05T02:57:44.091Z,4.93
2023-02-05T03:00:17.135Z,4.33
2023-02-05T03:02:51.171Z,4.70
2023-02-05T03:05:24.279Z,4.33
2023-02-05T03:08:00.607Z,4.73
2023-02-05T03:10:53.812Z,4.03
2023-02-05T03:13:24.714Z,4.40
2023-02-05T03:15:55.720Z,4.70
2023-02-05T03:18:26.625Z,4.70
2023-02-05T03:21:13.936Z,4.60
2023-02-05T03:23:45.109Z,5.30
2023-02-05T03:26:30.328Z,3.87
2023-02-05T03:29:03.806Z,3.67
2023-02-05T03:31:43.385Z,3.73
2023-02-05T03:34:41.336Z,3.63
2023-02-05T03:37:29.888Z,3.50
2023-02-05T03:40:16.680Z,3.83
2023-02-05T03:42:56.241Z,3.90
2023-02-05T03:45:45.330Z,4.27
2023-02-05T03:48:33.718Z,4.00
2023-02-05T03:51:12.472Z,3.90
2023-02-05T03:53:48.702Z,3.87
2023-02-05T03:56:40.778Z,4.23
2023-02-05T03:59:13.884Z,4.40
2023-02-05T04:01:46.192Z,3.70
2023-02-05T04:04:17.250Z,3.43
2023-02-05T04:06:53.023Z,3.67
2023-02-05T04:09:24.997Z,3.20
2023-02-05T04:11:55.582Z,3.03
2023-02-05T04:14:26.174Z,3.13
2023-02-05T04:16:56.770Z,3.70
2023-02-05T04:19:27.367Z,3.60
2023-02-05T04:21:57.899Z,3.70
2023-02-05T04:24:29.997Z,3.37
2023-02-05T04:27:02.813Z,3.40
2023-02-05T04:29:33.377Z,3.27
2023-02-05T04:32:03.917Z,3.57
2023-02-05T04:34:34.649Z,3.10
2023-02-05T04:37:05.258Z,3.37
2023-02-05T04:39:35.882Z,3.30
2023-02-05T04:42:06.679Z,3.70
2023-02-05T04:44:38.339Z,2.93
2023-02-05T04:47:08.910Z,3.37
2023-02-05T04:49:40.868Z,2.90
2023-02-05T04:52:11.591Z,3.00
2023-02-05T04:54:42.258Z,3.50
2023-02-05T04:57:12.844Z,3.13
2023-02-05T04:59:44.439Z,3.10
2023-02-05T05:02:14.942Z,2.87
2023-02-05T05:04:45.495Z,2.93
2023-02-05T05:07:16.468Z,3.00
2023-02-05T05:09:46.966Z,2.63
2023-02-05T05:12:17.340Z,2.90
2023-02-05T05:14:52.182Z,2.97
2023-02-05T05:17:22.579Z,2.67
2023-02-05T05:19:53.056Z,2.97
2023-02-05T05:22:23.631Z,3.10
2023-02-05T05:24:55.648Z,3.20
2023-02-05T05:27:26.187Z,3.33
2023-02-05T05:29:56.910Z,3.40
2023-02-05T05:32:27.461Z,3.10
2023-02-05T05:34:58.003Z,3.07
2023-02-05T05:37:28.473Z,4.70
2023-02-05T05:40:17.235Z,2.70
2023-02-05T05:43:05.425Z,4.10
2023-02-05T05:45:36.429Z,4.17
2023-02-05T05:48:08.841Z,3.33
2023-02-05T05:50:39.294Z,4.00
2023-02-05T05:53:09.936Z,3.73
2023-02-05T05:55:40.637Z,3.30
2023-02-05T05:58:11.973Z,2.90
2023-02-05T06:00:43.768Z,2.97
2023-02-05T06:03:14.702Z,3.10
2023-02-05T06:05:46.930Z,3.40
2023-02-05T06:08:17.549Z,3.40
2023-02-05T06:10:50.601Z,2.97
2023-02-05T06:13:20.785Z,2.67
2023-02-05T06:15:51.603Z,3.30
2023-02-05T06:18:24.029Z,3.10
2023-02-05T06:20:54.770Z,3.10
2023-02-05T06:23:25.731Z,3.03
2023-02-05T06:25:57.257Z,2.60
2023-02-05T06:28:29.231Z,2.87
2023-02-05T06:30:59.828Z,3.00
2023-02-05T06:33:30.330Z,2.83
2023-02-05T06:36:00.761Z,3.13
2023-02-05T06:38:31.198Z,2.73
2023-02-05T06:41:01.720Z,3.10
2023-02-05T06:43:33.681Z,3.50
2023-02-05T06:46:04.219Z,2.87
2023-02-05T06:48:37.710Z,3.10
2023-02-05T06:51:08.271Z,3.30
2023-02-05T06:53:40.366Z,3.80
2023-02-05T06:56:13.867Z,3.47
2023-02-05T06:58:44.258Z,3.70
2023-02-05T07:01:14.809Z,3.70
2023-02-05T07:03:45.744Z,3.90
2023-02-05T07:06:16.328Z,3.73
2023-02-05T07:08:48.297Z,4.00
2023-02-05T07:11:19.274Z,3.63
2023-02-05T07:13:51.807Z,4.37
2023-02-05T07:16:22.364Z,3.80
2023-02-05T07:18:54.314Z,4.10
2023-02-05T07:21:25.114Z,3.90
2023-02-05T07:23:55.559Z,4.00
2023-02-05T07:26:27.610Z,3.90
2023-02-05T07:29:00.524Z,4.00
2023-02-05T07:31:32.693Z,4.30
2023-02-05T07:34:04.589Z,4.50
2023-02-05T07:36:35.082Z,4.43
2023-02-05T07:39:05.532Z,4.03
2023-02-05T07:41:36.165Z,4.20
2023-02-05T07:44:06.973Z,4.13
2023-02-05T07:46:37.746Z,3.90
2023-02-05T07:49:08.256Z,3.83
2023-02-05T07:51:39.071Z,3.60
2023-02-05T07:54:11.070Z,2.97
2023-02-05T07:56:42.687Z,3.13
2023-02-05T07:59:14.858Z,3.50
2023-02-05T08:01:45.492Z,3.10
2023-02-05T08:04:17.745Z,3.20
2023-02-05T08:06:49.431Z,3.10
2023-02-05T08:09:22.691Z,3.27
2023-02-05T08:11:53.097Z,3.47
2023-02-05T08:14:25.229Z,3.10
2023-02-05T08:16:55.748Z,3.30
2023-02-05T08:19:26.611Z,3.30
2023-02-05T08:21:57.808Z,3.20
2023-02-05T08:24:28.974Z,2.60
2023-02-05T08:27:00.628Z,2.80
2023-02-05T08:29:31.173Z,3.10
2023-02-05T08:32:01.677Z,3.60
2023-02-05T08:34:32.301Z,3.27
2023-02-05T08:37:02.754Z,3.70
2023-02-05T08:39:33.332Z,3.80
2023-02-05T08:42:04.971Z,3.70
2023-02-05T08:44:35.736Z,3.20
2023-02-05T08:47:06.164Z,2.97
2023-02-05T08:49:38.253Z,3.20
2023-02-05T08:52:09.028Z,3.23
2023-02-05T08:54:40.034Z,3.07
2023-02-05T08:57:11.756Z,2.70
2023-02-05T08:59:42.286Z,3.10
2023-02-05T09:02:16.929Z,3.00
2023-02-05T09:04:50.202Z,4.67
2023-02-05T09:07:20.905Z,4.83
2023-02-05T09:09:53.822Z,2.80
2023-02-05T09:12:24.278Z,4.50
2023-02-05T09:14:54.686Z,3.57
2023-02-05T09:17:25.098Z,3.10
2023-02-05T09:19:55.625Z,3.53
2023-02-05T09:22:26.332Z,3.00
2023-02-05T09:24:56.754Z,2.73
2023-02-05T09:27:27.169Z,3.17
2023-02-05T09:29:57.557Z,2.90
2023-02-05T09:32:28.119Z,3.07
2023-02-05T09:34:58.603Z,3.30
2023-02-05T09:37:30.003Z,4.43
2023-02-05T09:40:20.218Z,3.40
2023-02-05T09:42:39.476Z,2.63
2023-02-05T09:45:39.316Z,3.27
2023-02-05T09:48:27.609Z,2.67
2023-02-05T09:50:59.322Z,2.90
2023-02-05T09:53:32.947Z,2.77
2023-02-05T09:56:07.552Z,3.00
2023-02-05T09:58:42.759Z,2.97
2023-02-05T10:01:38.970Z,3.20
2023-02-05T10:04:11.611Z,2.67
2023-02-05T10:07:05.309Z,2.93
2023-02-05T10:10:01.459Z,2.63
2023-02-05T10:12:42.102Z,3.60
2023-02-05T10:15:16.943Z,3.10
2023-02-05T10:18:17.980Z,2.93
2023-02-05T10:21:14.464Z,2.60
2023-02-05T10:24:11.572Z,3.70
2023-02-05T10:26:51.660Z,3.00
2023-02-05T10:29:38.089Z,2.73
2023-02-05T10:32:27.126Z,3.03
2023-02-05T10:35:05.370Z,3.00
2023-02-05T10:37:50.716Z,3.60
2023-02-05T10:40:35.096Z,2.97
2023-02-05T10:43:27.068Z,3.60
2023-02-05T10:46:00.450Z,3.30
2023-02-05T10:48:52.386Z,4.03
2023-02-05T10:51:37.979Z,3.03
2023-02-05T10:54:13.215Z,3.10
2023-02-05T10:56:44.651Z,3.40
2023-02-05T10:59:25.274Z,3.30
2023-02-05T11:01:59.000Z,3.40
2023-02-05T11:04:43.998Z,3.30
2023-02-05T11:07:18.682Z,3.07
2023-02-05T11:09:50.137Z,3.30
2023-02-05T11:12:27.360Z,3.03
2023-02-05T11:15:00.741Z,2.77
2023-02-05T11:17:39.478Z,3.00
2023-02-05T11:20:19.055Z,2.70
2023-02-05T11:22:53.375Z,3.10
2023-02-05T11:25:26.525Z,2.73
2023-02-05T11:28:04.007Z,2.70
2023-02-05T11:30:52.809Z,2.60
2023-02-05T11:33:27.556Z,2.80
2023-02-05T11:36:08.164Z,3.23
2023-02-05T11:38:48.603Z,2.73
2023-02-05T11:41:36.103Z,2.93
2023-02-05T11:44:06.674Z,2.60
2023-02-05T11:46:40.207Z,2.77
2023-02-05T11:49:22.864Z,3.33
2023-02-05T11:51:56.187Z,3.47
2023-02-05T11:54:36.540Z,2.67
2023-02-05T11:57:22.990Z,2.90
2023-02-05T12:00:12.846Z,2.70
2023-02-05T12:02:44.919Z,2.50
2023-02-05T12:05:19.040Z,2.43
2023-02-05T12:07:55.713Z,2.50
2023-02-05T12:10:58.149Z,2.40
2023-02-05T12:13:51.231Z,3.30
2023-02-05T12:16:48.298Z,3.20
2023-02-05T12:19:25.578Z,3.00
2023-02-05T12:22:06.609Z,2.50
2023-02-05T12:24:58.758Z,2.53
2023-02-05T12:27:32.215Z,2.73
2023-02-05T12:30:14.732Z,2.47
2023-02-05T12:33:11.819Z,3.40
2023-02-05T12:36:19.636Z,2.90
2023-02-05T12:38:55.945Z,3.20
2023-02-05T12:41:47.658Z,3.60
2023-02-05T12:44:35.765Z,3.23
2023-02-05T12:47:27.441Z,3.60
2023-02-05T12:50:15.884Z,5.70
2023-02-05T12:52:55.663Z,4.73
2023-02-05T12:55:48.988Z,4.60
2023-02-05T12:58:21.683Z,3.63
2023-02-05T13:00:56.386Z,3.50
2023-02-05T13:03:41.832Z,3.67
2023-02-05T13:06:21.336Z,3.47
2023-02-05T13:08:54.816Z,3.47
2023-02-05T13:11:43.457Z,3.13
2023-02-05T13:14:30.855Z,3.10
2023-02-05T13:17:17.959Z,3.80
2023-02-05T13:19:56.536Z,3.30
2023-02-05T13:23:13.122Z,3.23
2023-02-05T13:26:07.378Z,3.10
2023-02-05T13:28:43.263Z,3.80
2023-02-05T13:31:37.440Z,4.20
2023-02-05T13:34:12.400Z,7.97
2023-02-05T13:36:52.104Z,11.10
2023-02-05T13:39:34.488Z,11.23
2023-02-05T13:42:23.238Z,10.40
2023-02-05T13:45:25.866Z,12.30
2023-02-05T13:48:22.508Z,10.00
2023-02-05T13:51:13.338Z,6.00
2023-02-05T13:54:07.150Z,4.37
2023-02-05T13:57:01.047Z,3.20
2023-02-05T13:59:40.790Z,3.10
2023-02-05T14:02:23.487Z,4.03
2023-02-05T14:04:55.719Z,2.90
2023-02-05T14:07:33.398Z,3.60
2023-02-05T14:10:05.949Z,3.40
2023-02-05T14:12:39.013Z,3.53
2023-02-05T14:15:23.623Z,4.40
2023-02-05T14:17:57.590Z,2.97
2023-02-05T14:20:34.184Z,3.80
2023-02-05T14:23:14.793Z,4.67
2023-02-05T14:25:50.939Z,3.90
2023-02-05T14:28:34.883Z,3.90
2023-02-05T14:31:07.378Z,3.37
2023-02-05T14:33:44.580Z,3.70
2023-02-05T14:36:22.650Z,4.07
2023-02-05T14:38:55.774Z,4.43
2023-02-05T14:41:46.096Z,3.40
2023-02-05T14:44:33.396Z,2.90
2023-02-05T14:47:25.178Z,3.03
2023-02-05T14:50:07.625Z,3.13
2023-02-05T14:52:42.188Z,3.97
2023-02-05T14:55:20.076Z,3.70
2023-02-05T14:57:58.986Z,3.50
2023-02-05T15:00:38.569Z,3.70
2023-02-05T15:03:19.754Z,3.40
2023-02-05T15:05:56.625Z,4.00
2023-02-05T15:08:40.441Z,5.20
2023-02-05T15:11:29.117Z,3.13
2023-02-05T15:14:24.267Z,3.53
2023-02-05T15:17:14.479Z,3.67
2023-02-05T15:19:54.031Z,3.47
2023-02-05T15:22:35.972Z,3.20
2023-02-05T15:25:27.593Z,3.37
2023-02-05T15:28:03.966Z,3.50
2023-02-05T15:30:49.750Z,3.47
2023-02-05T15:33:23.726Z,4.07
2023-02-05T15:35:54.621Z,4.13
2023-02-05T15:38:36.459Z,4.00
2023-02-05T15:41:10.144Z,5.43
2023-02-05T15:43:40.610Z,4.97
2023-02-05T15:46:14.044Z,3.30
2023-02-05T15:48:45.363Z,3.30
2023-02-05T15:51:31.130Z,3.90
2023-02-05T15:54:04.794Z,4.37
2023-02-05T15:56:42.129Z,3.97
2023-02-05T15:59:16.506Z,4.37
2023-02-05T16:01:53.370Z,4.00
2023-02-05T16:04:32.542Z,4.27
2023-02-05T16:07:04.360Z,5.50
2023-02-05T16:09:38.124Z,5.10
2023-02-05T16:12:13.360Z,4.03
2023-02-05T16:14:47.974Z,3.90
2023-02-05T16:17:22.104Z,3.67
2023-02-05T16:19:55.605Z,2.93
2023-02-05T16:22:30.249Z,3.10
2023-02-05T16:25:04.138Z,3.40
2023-02-05T16:27:40.666Z,3.47
2023-02-05T16:30:23.176Z,3.40
2023-02-05T16:32:56.343Z,3.93
2023-02-05T16:35:29.932Z,3.87
2023-02-05T16:38:01.176Z,3.10
2023-02-05T16:40:40.372Z,4.30
2023-02-05T16:43:29.182Z,3.50
2023-02-05T16:46:08.866Z,3.80
2023-02-05T16:48:43.524Z,3.20
2023-02-05T16:51:38.101Z,3.20
2023-02-05T16:54:14.351Z,3.60
2023-02-05T16:57:04.743Z,4.10
2023-02-05T16:59:38.249Z,4.30
2023-02-05T17:02:13.797Z,4.17
2023-02-05T17:04:44.859Z,4.10
2023-02-05T17:07:19.750Z,4.20
2023-02-05T17:09:51.161Z,4.47
2023-02-05T17:12:35.263Z,4.37
2023-02-05T17:15:18.329Z,4.67
2023-02-05T17:17:52.101Z,5.70
2023-02-05T17:20:28.949Z,4.07
2023-02-05T17:23:05.544Z,4.43
2023-02-05T17:25:55.917Z,5.20
2023-02-05T17:28:34.028Z,4.87
2023-02-05T17:31:08.608Z,5.27
2023-02-05T17:33:39.166Z,5.30
2023-02-05T17:36:15.167Z,6.30
2023-02-05T17:38:48.336Z,6.20
2023-02-05T17:41:40.801Z,4.80
2023-02-05T17:44:15.865Z,5.10
2023-02-05T17:46:48.646Z,9.47
2023-02-05T17:49:19.222Z,7.07
2023-02-05T17:51:49.688Z,6.43
2023-02-05T17:54:23.250Z,6.57
2023-02-05T17:56:57.056Z,5.97
2023-02-05T17:59:34.176Z,5.83
2023-02-05T18:02:04.474Z,5.73
2023-02-05T18:04:35.135Z,5.60
2023-02-05T18:07:05.906Z,6.67
2023-02-05T18:09:37.606Z,6.10
2023-02-05T18:12:08.312Z,6.00
2023-02-05T18:14:38.889Z,6.23
2023-02-05T18:17:10.386Z,6.87
2023-02-05T18:19:40.911Z,6.20
2023-02-05T18:22:11.463Z,7.53
2023-02-05T18:24:45.062Z,6.23
2023-02-05T18:27:15.564Z,6.17
2023-02-05T18:29:48.896Z,6.20
2023-02-05T18:32:19.699Z,6.97
2023-02-05T18:34:53.971Z,6.70
2023-02-05T18:37:26.620Z,6.93
2023-02-05T18:39:59.299Z,6.33
2023-02-05T18:42:31.456Z,6.20
2023-02-05T18:45:03.505Z,5.83
2023-02-05T18:47:35.731Z,7.80
2023-02-05T18:50:09.971Z,7.20
2023-02-05T18:52:45.559Z,8.10
2023-02-05T18:55:18.557Z,7.03
2023-02-05T18:57:50.729Z,6.73
2023-02-05T19:00:23.086Z,7.50
2023-02-05T19:02:55.336Z,6.50
2023-02-05T19:05:25.959Z,8.40
2023-02-05T19:07:58.143Z,7.70
2023-02-05T19:10:32.076Z,8.57
2023-02-05T19:13:11.096Z,8.07
2023-02-05T19:15:43.305Z,15.93
2023-02-05T19:18:16.518Z,7.83
2023-02-05T19:20:49.533Z,7.70
2023-02-05T19:23:22.212Z,6.40
2023-02-05T19:25:54.512Z,7.80
2023-02-05T19:28:31.770Z,6.60
2023-02-05T19:31:06.266Z,6.50
2023-02-05T19:33:37.288Z,7.07
2023-02-05T19:36:11.666Z,6.67
2023-02-05T19:38:53.172Z,6.47
2023-02-05T19:41:29.216Z,7.00
2023-02-05T19:44:02.898Z,8.07
2023-02-05T19:46:36.885Z,6.17
2023-02-05T19:49:16.890Z,7.17
2023-02-05T19:51:49.482Z,7.30
2023-02-05T19:54:21.898Z,6.83
2023-02-05T19:56:52.867Z,6.13
2023-02-05T19:59:23.479Z,6.30
2023-02-05T20:01:54.567Z,7.40
2023-02-05T20:04:28.624Z,8.13
2023-02-05T20:07:01.784Z,7.97
2023-02-05T20:09:32.979Z,7.90
2023-02-05T20:12:05.856Z,7.27
2023-02-05T20:14:39.050Z,7.30
2023-02-05T20:17:12.244Z,6.87
2023-02-05T20:19:43.665Z,6.83
2023-02-05T20:22:15.118Z,8.37
2023-02-05T20:24:45.616Z,7.00
2023-02-05T20:27:17.979Z,6.67
2023-02-05T20:30:06.796Z,7.47
2023-02-05T20:32:38.470Z,5.70
2023-02-05T20:35:12.210Z,8.80
2023-02-05T20:37:46.571Z,7.30
2023-02-05T20:40:17.181Z,7.70
2023-02-05T20:42:49.551Z,8.80
2023-02-05T20:45:21.678Z,7.53
2023-02-05T20:47:52.174Z,7.17
2023-02-05T20:50:26.930Z,8.67
2023-02-05T20:52:57.875Z,8.90
2023-02-05T20:55:30.698Z,9.67
2023-02-05T20:58:02.177Z,7.13
2023-02-05T21:00:35.202Z,7.07
2023-02-05T21:03:07.511Z,7.00
2023-02-05T21:05:39.388Z,7.00
2023-02-05T21:08:12.581Z,8.30
2023-02-05T21:10:43.112Z,9.47
2023-02-05T21:13:16.279Z,9.40
2023-02-05T21:15:55.393Z,10.77
2023-02-05T21:18:32.113Z,8.20
2023-02-05T21:21:12.595Z,8.40
2023-02-05T21:23:45.974Z,9.53
2023-02-05T21:26:23.700Z,11.33
2023-02-05T21:29:00.008Z,6.80
2023-02-05T21:31:36.322Z,18.07
2023-02-05T21:34:10.265Z,18.97
2023-02-05T21:36:41.163Z,24.77
2023-02-05T21:39:15.869Z,6.83
2023-02-05T21:41:50.469Z,6.30
2023-02-05T21:44:24.014Z,6.53
2023-02-05T21:46:56.396Z,7.20
2023-02-05T21:49:31.295Z,7.17
2023-02-05T21:52:01.777Z,7.57
2023-02-05T21:54:35.647Z,8.37
2023-02-05T21:57:08.021Z,9.37
2023-02-05T21:59:39.611Z,7.97
2023-02-05T22:02:12.456Z,9.43
2023-02-05T22:04:42.914Z,9.10
2023-02-05T22:07:14.888Z,8.90
2023-02-05T22:09:47.347Z,8.10
2023-02-05T22:12:17.999Z,8.73
2023-02-05T22:14:50.370Z,10.77
2023-02-05T22:17:22.421Z,7.83
2023-02-05T22:19:53.041Z,8.43
2023-02-05T22:22:23.552Z,7.13
2023-02-05T22:24:54.118Z,6.67
2023-02-05T22:27:26.722Z,7.90
2023-02-05T22:29:57.440Z,6.17
2023-02-05T22:32:30.391Z,7.40
2023-02-05T22:35:00.973Z,6.73
2023-02-05T22:37:31.596Z,7.07
2023-02-05T22:40:04.406Z,7.10
2023-02-05T22:42:34.959Z,6.10
2023-02-05T22:45:07.688Z,6.37
2023-02-05T22:47:39.553Z,5.83
2023-02-05T22:50:10.763Z,12.77
2023-02-05T22:52:42.407Z,7.10
2023-02-05T22:55:17.272Z,6.60
2023-02-05T22:57:47.734Z,7.17
2023-02-05T23:00:20.317Z,8.27
2023-02-05T23:02:51.131Z,7.73
2023-02-05T23:05:22.655Z,8.17
2023-02-05T23:07:54.151Z,7.30
2023-02-05T23:10:27.284Z,6.97
2023-02-05T23:12:57.880Z,7.30
2023-02-05T23:15:29.704Z,6.93
2023-02-05T23:18:03.107Z,7.30
2023-02-05T23:20:34.826Z,7.47
2023-02-05T23:23:11.423Z,8.00
2023-02-05T23:25:43.640Z,8.10
2023-02-05T23:28:14.182Z,7.33
2023-02-05T23:30:45.023Z,7.37
2023-02-05T23:33:16.239Z,7.40
2023-02-05T23:35:46.737Z,7.17
2023-02-05T23:38:17.950Z,7.53
2023-02-05T23:40:52.090Z,7.40
2023-02-05T23:43:22.238Z,8.23
2023-02-05T23:45:55.980Z,8.23
2023-02-05T23:48:29.786Z,7.00
2023-02-05T23:51:01.435Z,8.60
2023-02-05T23:53:31.871Z,7.77
2023-02-05T23:56:04.118Z,7.23
2023-02-05T23:58:39.005Z,7.90
